Purvis, Mississippi
Current Conditions -  °F | °C
As of 1:53 PM on Saturday 25 Oct 2014 (Local Time) from KHBG Reporting Station
Clear Clear  
Wind Chill: 77°   Ceiling: Unl
Heat Index: 79°   Visibility: 10mi
Dew Point: 57°   Wind: 7mph
Humidity: 50%   Direction: 290°WNW
Pressure: 30.1"   Gusts: NA
Location:  31.14°N, 89.41°W
Report Text: KHBG 251853Z AUTO 29006KT 10SM CLR 25/14 A3010 RMK AO2 SLP191 T02500139
Loading
Personal Weather Stations






























Interactive Weather Map
Tropical Storm Tracking
New forecast layout! Learn more

10-Day Weather Forecast

Advertisements
Track Severe Weather on mobile